Marathon Airport
CYSP : now visible

Airfield :











YOU CAN JOIN US ON...

 
LOGIN :

Register | Disclaimer

   EN    FR    IT 

 









Legend :    VFR   Marginal VFR   IFR   Intensive IFR   Very Intensive IFR
Visi :
Ceiling :
>= 8 km
>= 3000ft
5 to 8 km
1000 to 3000 ft
1500m to 5 km
500 to 1000 ft
800 to 1500m
200 to 500 ft
< 800m
< 200 ft
Symbols :   Thunderstorms  Fog  Heavy snow  Heavy precipitations  Wind > 20 kt







- Airport Elevation : 1035 ft
- IATA code : YSP


CYSP - Marathon

CURRENT METAR :
  • 212100Z 17012G23KT 6SM BR SCT022 BKN034 OVC052 21/20 A2978 RMK SC3SC3SC2 LAST STFD OBS/NEXT 221200UTC SLP088 DENSITY ALT 2200FT

EXPIRED METARs :
  • 212041Z 17012G28KT 6SM HZ FEW025 SCT033 BKN070 OVC090 22/20 A2979 RMK SC2SC1AC3AC2 SLP093 DENSITY ALT 2300FT
  • 212000Z 18011G29KT 150V210 15SM FEW010 SCT090 BKN100 OVC120 22/19 A2980 RMK SC1AC2AC3AC2 SLP096 DENSITY ALT 2300FT
  • 211900Z 18013G26KT 140V210 15SM FEW010 SCT040 OVC220 24/19 A2983 RMK SC2SC2CI4 SLP105 DENSITY ALT 2400FT

Expired Forecast.
No reported NOTAMs for that airfield.



MET'MAP, your aeronautical weather chart ! - Copyright ORBIFLY December 2007 - Disclaimer

ORBIFLY MET'MAP TEAM :

Programming & Development : Alexandra Zaïnal
Concept & Development : Baudouin d'Aumeries
Co-Development & Prog : Marc-Olivier Méhu
Technical & hardware support : Manuel Goepfert

Contact : metmap@orbifly.com




SOURCES & CREDITS :

   NOAA       Earth
Advisory